Flagstaff, AZ

6:36 AM MST on February 10, 2016 (GMT -0700)
Flagstaff Townsite | | Change Station
CLOSE
Current Station
Personal Weather Station
Location: Flagstaff, AZ
Elevation: 6949 ft
Nearby Weather Stations

Elev 6949 ft 35.20 °N, 111.65 °W | Updated 9 minutes ago

Clear
Clear
24.1 °F
Feels Like 24 °F
N
2.2
Wind Variable Wind from NNW

Today
High -- | Low -- °F
--% Chance of Precip.
Yesterday
High -- | Low -- °F
Precip. -- in
Pressure 30.41 in
Visibility 10.0 miles
Clouds Clear
Windchill 24 °F
Dew Point 15 °F
Humidity 68%
Rainfall 0.00 in
Snow Depth Not available.
7:18 AM 6:03 PM
Waxing Crescent, 5% visible
METAR KFLG 101257Z AUTO 00000KT 10SM CLR M07/M11 A3044 RMK AO2 SLP296 T10671106 TSNO
Pressure 30.41 in
Visibility 10.0 miles
Clouds Clear
Windchill 24 °F
Dew Point 15 °F
Humidity 68%
Rainfall 0.00 in
Snow Depth Not available.
7:18 AM 6:03 PM
Waxing Crescent, 5% visible
METAR KFLG 101257Z AUTO 00000KT 10SM CLR M07/M11 A3044 RMK AO2 SLP296 T10671106 TSNO

10-Day Weather Forecast

Almanac

Astronomy

Feb. 10, 2016 Rise Set
Actual Time
Civil Twilight
Nautical Twilight
Astronomical Twilight
Moon
Length of Visible Light
Length of Day
Tomorrow will be .
, % of the Moon is Illuminated

Today's Extremes

State Highs State Lows

Community

WunderPhotos

Upload Photos

1,891,840 photos uploaded!

WunderBlog® & News

Nearby

Air Quality

  Air Quality AQ Index Pollutant
Not available.

Snow Depth

Station Depth Elevation

Earthquake Activity

City Distance Mag. Time & Date
Minimum magnitude displayed is 2.5.

Coastal Water Temperatures

Place Temperature

Stations

Nearby Weather Stations

Station Location Temp. Windchill Dew Point Humidity Wind Precip. Elev Updated Type
                   

Watches & Warnings

There are currently no watches in effect.